Time;durP1;ratioP1;P1;durP2;ratioP2;P2;SDS_P1;SDS_P2;PMS_P1;PMS_P2;Temp;Humidity;BMP_temperature;BMP_pressure;BME280_temperature;BME280_humidity;BME280_pressure;Samples;Min_cycle;Max_cycle;Signal;HPM_P1;HPM_P2
2022/02/18 00:00:05;;;;;;;;;;;;;;;12.77;57.33;101114.13;5132568;27;19915;-86
2022/02/18 00:02:30;;;;;;;;;;;;;;;12.44;57.77;101109.50;5129904;27;19922;-88
2022/02/18 00:04:55;;;;;;;;;;;;;;;12.33;59.88;101098.31;5150296;27;19962;-86
2022/02/18 00:07:23;;;;;;;;;;;;;;;12.34;59.23;101109.09;5150240;27;19923;-90
2022/02/18 00:09:48;;;;;;;;;;;;;;;12.51;57.25;101101.91;5131107;27;19927;-89
2022/02/18 00:12:14;;;;;;;;;;;;;;;12.33;58.50;101087.47;5130519;27;19915;-86
2022/02/18 00:14:39;;;;;;;;;;;;;;;12.39;58.79;101093.47;5113814;27;20003;-87
2022/02/18 00:17:04;;;;;;;;;;;;;;;12.45;59.11;101085.94;5129583;27;19911;-89
2022/02/18 00:19:30;;;;;;;;;;;;;;;12.98;55.47;101079.50;5129632;27;19915;-89
2022/02/18 00:21:58;;;;;;;;;;;;;;;12.95;57.11;101079.69;5147760;27;19919;-90
2022/02/18 00:24:23;;;;;;;;;;;;;;;13.23;55.34;101073.63;5129098;27;19922;-88
2022/02/18 00:26:48;;;;;;;;;;;;;;;12.66;56.84;101078.53;5130463;27;20014;-91
2022/02/18 00:29:15;;;;;;;;;;;;;;;12.53;58.60;101067.41;5130908;27;19923;-87
2022/02/18 00:31:42;;;;;;;;;;;;;;;12.39;58.60;101063.63;5148615;27;19954;-87
2022/02/18 00:34:07;;;;;;;;;;;;;;;12.85;58.22;101056.72;5130898;27;19922;-89
2022/02/18 00:36:36;;;;;;;;;;;;;;;12.62;57.77;101060.63;5131533;27;19915;-87
2022/02/18 00:39:03;;;;;;;;;;;;;;;12.93;55.71;101055.31;5147830;27;19937;-89
2022/02/18 00:41:37;;;;;;;;;;;;;;;13.33;54.06;101054.09;5130430;27;19915;-87
2022/02/18 00:44:04;;;;;;;;;;;;;;;12.91;56.75;101065.41;5126787;27;20380;-87
2022/02/18 00:46:29;;;;;;;;;;;;;;;13.25;54.93;101054.53;5123166;27;19975;-89
2022/02/18 00:48:55;;;;;;;;;;;;;;;12.66;57.08;101062.25;5123236;27;20018;-90
2022/02/18 00:51:20;;;;;;;;;;;;;;;12.48;58.66;101059.53;5123032;27;19915;-90
2022/02/18 00:53:46;;;;;;;;;;;;;;;13.07;56.91;101061.84;5122247;27;19930;-90
2022/02/18 00:56:11;;;;;;;;;;;;;;;13.28;56.33;101059.78;5122661;27;19991;-90
2022/02/18 00:58:36;;;;;;;;;;;;;;;13.15;55.44;101051.44;5122945;27;20349;-89
2022/02/18 01:01:01;;;;;;;;;;;;;;;12.47;58.32;101046.94;5122527;27;19958;-88
2022/02/18 01:03:27;;;;;;;;;;;;;;;12.97;57.86;101042.47;5141550;27;19950;-87
2022/02/18 01:05:52;;;;;;;;;;;;;;;12.98;57.18;101040.63;5122659;27;19950;-89
2022/02/18 01:08:17;;;;;;;;;;;;;;;13.68;54.32;101024.97;5123919;27;19935;-89
2022/02/18 01:10:43;;;;;;;;;;;;;;;12.92;56.98;101033.69;5124875;27;19916;-90
2022/02/18 01:13:08;;;;;;;;;;;;;;;13.35;56.27;101025.91;5125086;28;19915;-89
2022/02/18 01:15:33;;;;;;;;;;;;;;;12.81;57.05;101036.97;5124448;28;19967;-90
2022/02/18 01:18:04;;;;;;;;;;;;;;;13.25;55.77;101030.94;5142934;27;19919;-89
2022/02/18 01:20:30;;;;;;;;;;;;;;;12.92;57.37;101041.81;5124277;28;19919;-90
2022/02/18 01:22:55;;;;;;;;;;;;;;;13.34;55.63;101029.59;5124156;28;19989;-91
2022/02/18 01:25:21;;;;;;;;;;;;;;;12.02;60.02;101030.22;5124226;28;19916;-89
2022/02/18 01:27:46;;;;;;;;;;;;;;;12.76;57.54;101018.22;5123450;28;19926;-86
2022/02/18 01:30:12;;;;;;;;;;;;;;;13.05;57.51;101007.59;5123627;28;19922;-89
2022/02/18 01:32:37;;;;;;;;;;;;;;;12.37;59.53;101004.97;5123926;28;19915;-91
2022/02/18 01:35:03;;;;;;;;;;;;;;;12.89;58.29;101003.97;5123604;28;19916;-89
2022/02/18 01:37:29;;;;;;;;;;;;;;;12.16;62.08;101007.81;5123725;28;19915;-90
2022/02/18 01:39:54;;;;;;;;;;;;;;;12.93;58.28;101001.00;5142165;28;19924;-89
2022/02/18 01:42:19;;;;;;;;;;;;;;;13.19;60.09;100987.81;5124107;28;20006;-89
2022/02/18 01:44:45;;;;;;;;;;;;;;;12.54;61.02;100987.78;5124253;28;19978;-88
2022/02/18 01:47:13;;;;;;;;;;;;;;;12.58;60.84;100979.38;5124130;28;20018;-89
2022/02/18 01:49:39;;;;;;;;;;;;;;;13.35;59.23;100971.56;5123967;28;19919;-88
2022/02/18 01:52:05;;;;;;;;;;;;;;;12.98;60.83;100960.03;5123715;28;19974;-89
2022/02/18 01:54:31;;;;;;;;;;;;;;;13.26;58.62;100953.91;5124203;28;19926;-90
2022/02/18 01:56:56;;;;;;;;;;;;;;;12.37;62.44;100948.84;5145903;28;19915;-85
2022/02/18 01:59:21;;;;;;;;;;;;;;;13.50;57.84;100930.88;5128789;28;19923;-88
2022/02/18 02:01:47;;;;;;;;;;;;;;;13.63;56.29;100919.19;5130596;28;20002;-87
2022/02/18 02:04:12;;;;;;;;;;;;;;;13.19;59.74;100911.75;5129414;27;19999;-89
2022/02/18 02:06:38;;;;;;;;;;;;;;;12.93;60.52;100905.09;5129404;27;19915;-88
2022/02/18 02:09:04;;;;;;;;;;;;;;;12.81;59.61;100893.09;5129394;27;19923;-90
2022/02/18 02:11:29;;;;;;;;;;;;;;;13.69;56.35;100889.88;5128515;27;19919;-89
2022/02/18 02:13:54;;;;;;;;;;;;;;;13.87;55.79;100898.78;5127879;27;19915;-88
2022/02/18 02:16:20;;;;;;;;;;;;;;;13.34;57.64;100901.88;5127904;27;19919;-86
2022/02/18 02:18:45;;;;;;;;;;;;;;;13.02;57.59;100888.28;5128508;27;19968;-88
2022/02/18 02:21:11;;;;;;;;;;;;;;;13.27;58.37;100881.41;5128151;27;19919;-89
2022/02/18 02:23:36;;;;;;;;;;;;;;;13.62;56.45;100867.66;5127545;27;19987;-90
2022/02/18 02:26:02;;;;;;;;;;;;;;;13.16;58.18;100867.59;5126852;27;20411;-90
2022/02/18 02:28:27;;;;;;;;;;;;;;;13.16;58.59;100870.31;5127806;27;19916;-91
2022/02/18 02:30:52;;;;;;;;;;;;;;;12.92;59.70;100860.78;5126955;27;19971;-89
2022/02/18 02:33:18;;;;;;;;;;;;;;;13.12;59.26;100846.06;5127169;27;19911;-89
2022/02/18 02:35:43;;;;;;;;;;;;;;;13.08;60.26;100846.31;5127201;27;19916;-91
2022/02/18 02:38:08;;;;;;;;;;;;;;;13.23;59.15;100828.25;5127526;27;19927;-89
2022/02/18 02:40:33;;;;;;;;;;;;;;;13.60;58.06;100824.25;5145358;27;20358;-90
2022/02/18 02:42:59;;;;;;;;;;;;;;;13.89;57.31;100817.97;5145387;27;19983;-89
2022/02/18 02:45:24;;;;;;;;;;;;;;;13.43;59.27;100814.38;5125417;27;19915;-90
2022/02/18 02:47:49;;;;;;;;;;;;;;;13.54;57.82;100819.19;5125815;27;20284;-89
2022/02/18 02:50:16;;;;;;;;;;;;;;;13.88;57.37;100813.50;5125713;27;20353;-90
2022/02/18 02:52:41;;;;;;;;;;;;;;;14.00;56.97;100807.31;5125392;27;19964;-89
2022/02/18 02:55:07;;;;;;;;;;;;;;;13.71;57.73;100803.66;5124906;27;19924;-89
2022/02/18 02:57:32;;;;;;;;;;;;;;;13.33;59.16;100802.28;5143506;27;19941;-90
2022/02/18 02:59:58;;;;;;;;;;;;;;;13.70;58.52;100789.19;5125262;27;19922;-91
2022/02/18 03:02:23;;;;;;;;;;;;;;;13.64;58.77;100774.13;5124735;27;19915;-90
2022/02/18 03:04:48;;;;;;;;;;;;;;;13.35;60.25;100772.34;5124552;27;19926;-89
2022/02/18 03:07:13;;;;;;;;;;;;;;;13.69;59.69;100752.09;5125309;27;19954;-89
2022/02/18 03:09:38;;;;;;;;;;;;;;;13.44;59.75;100750.03;5125838;27;20357;-90
2022/02/18 03:12:04;;;;;;;;;;;;;;;13.73;59.39;100747.38;5126695;27;19915;-86
2022/02/18 03:14:29;;;;;;;;;;;;;;;13.21;61.66;100749.56;5145723;27;19916;-90
2022/02/18 03:16:55;;;;;;;;;;;;;;;13.07;63.67;100741.34;5126313;27;19915;-91
2022/02/18 03:19:20;;;;;;;;;;;;;;;13.27;61.90;100726.56;5125642;27;19922;-88
2022/02/18 03:21:45;;;;;;;;;;;;;;;13.35;61.64;100724.31;5125458;27;20342;-89
2022/02/18 03:24:11;;;;;;;;;;;;;;;13.40;61.75;100722.16;5124740;27;19967;-90
2022/02/18 03:26:36;;;;;;;;;;;;;;;13.61;60.69;100716.38;5125231;27;19938;-90
2022/02/18 03:29:01;;;;;;;;;;;;;;;13.56;60.85;100699.50;5143073;27;19923;-89
2022/02/18 03:31:26;;;;;;;;;;;;;;;13.28;61.84;100690.28;5124934;27;19915;-90
2022/02/18 03:33:52;;;;;;;;;;;;;;;13.47;62.15;100690.94;5124569;27;19916;-91
2022/02/18 03:36:18;;;;;;;;;;;;;;;13.33;63.17;100666.44;5124487;27;19912;-89
2022/02/18 03:38:43;;;;;;;;;;;;;;;13.39;63.16;100659.75;5124059;27;19922;-88
2022/02/18 03:41:08;;;;;;;;;;;;;;;13.34;62.82;100643.75;5123836;27;19919;-89
2022/02/18 03:43:34;;;;;;;;;;;;;;;13.16;62.70;100629.44;5123639;27;19911;-88
2022/02/18 03:45:59;;;;;;;;;;;;;;;13.03;63.97;100609.44;5142353;27;19921;-88
2022/02/18 03:48:25;;;;;;;;;;;;;;;13.24;63.57;100599.97;5142302;27;20342;-91
2022/02/18 03:50:50;;;;;;;;;;;;;;;12.95;64.34;100580.03;5124438;27;19979;-89
2022/02/18 03:53:15;;;;;;;;;;;;;;;13.12;63.70;100560.84;5128873;27;19930;-90
2022/02/18 03:55:40;;;;;;;;;;;;;;;13.03;63.92;100555.13;5146686;27;20326;-90
2022/02/18 03:58:06;;;;;;;;;;;;;;;13.30;63.50;100563.41;5131303;27;19920;-86
2022/02/18 04:00:31;;;;;;;;;;;;;;;13.53;62.79;100564.66;5128131;27;19920;-89
2022/02/18 04:02:57;;;;;;;;;;;;;;;12.73;66.98;100550.66;5124578;27;19915;-89
2022/02/18 04:05:23;;;;;;;;;;;;;;;13.12;65.08;100533.69;5123982;27;19938;-90
2022/02/18 04:07:48;;;;;;;;;;;;;;;12.94;65.95;100532.16;5124449;27;20631;-89
2022/02/18 04:10:13;;;;;;;;;;;;;;;12.94;66.42;100529.44;5124017;27;19938;-92
2022/02/18 04:12:38;;;;;;;;;;;;;;;12.80;66.92;100537.56;5125581;27;20023;-91
2022/02/18 04:15:04;;;;;;;;;;;;;;;12.60;66.51;100531.50;5126907;27;19979;-89
2022/02/18 04:17:29;;;;;;;;;;;;;;;13.08;65.89;100532.13;5127291;27;19916;-89
2022/02/18 04:19:55;;;;;;;;;;;;;;;13.01;66.22;100546.19;5126305;27;19919;-89
2022/02/18 04:22:21;;;;;;;;;;;;;;;12.19;67.71;100549.31;5107551;27;20300;-89
2022/02/18 04:24:46;;;;;;;;;;;;;;;12.46;68.72;100531.50;5123691;27;20010;-88
2022/02/18 04:27:11;;;;;;;;;;;;;;;13.09;65.87;100514.88;5123353;27;19988;-89
2022/02/18 04:29:36;;;;;;;;;;;;;;;12.46;67.70;100509.78;5123104;27;19915;-89
2022/02/18 04:32:02;;;;;;;;;;;;;;;12.58;66.84;100517.19;5105782;27;19920;-89
2022/02/18 04:34:27;;;;;;;;;;;;;;;12.63;66.12;100519.59;5123001;27;19921;-88
2022/02/18 04:36:52;;;;;;;;;;;;;;;12.46;67.53;100512.50;5122583;27;19981;-89
2022/02/18 04:39:17;;;;;;;;;;;;;;;12.71;66.14;100490.13;5122677;27;19949;-89
2022/02/18 04:41:42;;;;;;;;;;;;;;;12.69;66.03;100486.66;5122718;27;19926;-90
2022/02/18 04:44:08;;;;;;;;;;;;;;;12.99;65.36;100472.13;5141687;27;19916;-89
2022/02/18 04:46:33;;;;;;;;;;;;;;;12.75;66.21;100462.69;5123246;27;20368;-89
2022/02/18 04:48:58;;;;;;;;;;;;;;;12.81;66.00;100438.88;5123771;27;19930;-89
2022/02/18 04:51:24;;;;;;;;;;;;;;;12.90;65.56;100424.69;5123263;27;20010;-92
2022/02/18 04:53:49;;;;;;;;;;;;;;;12.97;65.26;100414.31;5119539;28;19924;-88
2022/02/18 04:56:16;;;;;;;;;;;;;;;12.59;66.08;100413.06;5119278;28;23505;-90
2022/02/18 04:58:42;;;;;;;;;;;;;;;12.96;66.40;100399.88;5119526;28;19941;-91
2022/02/18 05:01:09;;;;;;;;;;;;;;;12.40;65.58;100394.38;5119431;28;20284;-89
2022/02/18 05:03:35;;;;;;;;;;;;;;;13.30;64.32;100392.25;5119172;28;19938;-89
2022/02/18 05:06:01;;;;;;;;;;;;;;;12.89;64.97;100403.94;5120113;28;19916;-86
2022/02/18 05:08:26;;;;;;;;;;;;;;;12.63;66.25;100387.50;5118914;28;20017;-89
2022/02/18 05:10:51;;;;;;;;;;;;;;;12.69;64.90;100376.22;5119066;28;20372;-88
2022/02/18 05:13:16;;;;;;;;;;;;;;;13.49;62.97;100372.00;5118640;28;20006;-88
2022/02/18 05:15:42;;;;;;;;;;;;;;;13.18;63.89;100379.44;5118642;28;19920;-89
2022/02/18 05:18:07;;;;;;;;;;;;;;;12.16;67.39;100353.38;5118495;28;19933;-87
2022/02/18 05:20:32;;;;;;;;;;;;;;;12.25;67.51;100331.09;5118648;28;19916;-88
2022/02/18 05:22:58;;;;;;;;;;;;;;;12.58;65.18;100322.66;5118415;28;19931;-88
2022/02/18 05:25:23;;;;;;;;;;;;;;;12.73;65.99;100309.94;5119155;28;19916;-89
2022/02/18 05:27:50;;;;;;;;;;;;;;;12.40;66.04;100300.28;5119528;28;19927;-87
2022/02/18 05:30:15;;;;;;;;;;;;;;;12.62;65.37;100301.63;5118148;28;19915;-88
2022/02/18 05:32:40;;;;;;;;;;;;;;;12.86;63.44;100303.69;5118667;28;20391;-88
2022/02/18 05:35:06;;;;;;;;;;;;;;;11.92;66.85;100294.25;5118955;28;20328;-88
2022/02/18 05:37:32;;;;;;;;;;;;;;;12.12;65.43;100270.47;5118755;28;19928;-88
2022/02/18 05:39:58;;;;;;;;;;;;;;;11.89;66.91;100270.91;5123650;28;19916;-89
2022/02/18 05:42:23;;;;;;;;;;;;;;;12.24;66.15;100248.00;5123098;28;20436;-89
2022/02/18 05:44:48;;;;;;;;;;;;;;;12.08;65.54;100237.28;5123511;28;19920;-87
2022/02/18 05:47:13;;;;;;;;;;;;;;;12.22;64.24;100239.97;5129404;27;19916;-85
2022/02/18 05:49:39;;;;;;;;;;;;;;;12.18;64.84;100241.16;5128720;28;19919;-88
2022/02/18 05:52:04;;;;;;;;;;;;;;;12.67;62.85;100215.34;5128576;28;19923;-88
2022/02/18 05:54:29;;;;;;;;;;;;;;;11.88;63.80;100182.47;5123892;28;19965;-86
2022/02/18 05:56:55;;;;;;;;;;;;;;;12.01;64.59;100198.81;5120765;28;19923;-87
2022/02/18 05:59:20;;;;;;;;;;;;;;;11.80;65.39;100179.34;5121564;28;19915;-86
2022/02/18 06:01:46;;;;;;;;;;;;;;;11.99;64.80;100157.41;5123760;28;19919;-87
2022/02/18 06:04:12;;;;;;;;;;;;;;;12.26;63.78;100178.28;5123909;28;19937;-86
2022/02/18 06:06:38;;;;;;;;;;;;;;;11.90;66.86;100147.13;5122943;28;19929;-87
2022/02/18 06:09:03;;;;;;;;;;;;;;;11.81;67.72;100132.31;5127070;28;19916;-91
2022/02/18 06:11:28;;;;;;;;;;;;;;;11.46;68.74;100112.91;5125700;28;19926;-88
2022/02/18 06:13:53;;;;;;;;;;;;;;;11.86;67.36;100116.63;5126530;28;19938;-89
2022/02/18 06:16:19;;;;;;;;;;;;;;;11.37;71.21;100106.22;5125035;28;20010;-89
2022/02/18 06:18:44;;;;;;;;;;;;;;;12.04;73.71;100092.03;5122522;28;19922;-87
2022/02/18 06:21:09;;;;;;;;;;;;;;;11.96;73.12;100106.09;5122154;28;20391;-87
2022/02/18 06:23:35;;;;;;;;;;;;;;;11.31;77.66;100080.41;5120989;28;19931;-88
2022/02/18 06:26:00;;;;;;;;;;;;;;;11.18;76.57;100079.41;5117771;28;19916;-87
2022/02/18 06:28:29;;;;;;;;;;;;;;;12.09;75.05;100064.63;5118618;28;19951;-86
2022/02/18 06:31:01;;;;;;;;;;;;;;;11.47;77.42;100046.91;5120803;28;19923;-84
2022/02/18 06:33:26;;;;;;;;;;;;;;;11.76;76.91;100044.16;5120646;28;19978;-89
2022/02/18 06:35:51;;;;;;;;;;;;;;;11.66;77.06;100030.34;5117047;28;19958;-86
2022/02/18 06:38:16;;;;;;;;;;;;;;;10.90;78.07;100024.31;5119177;28;19966;-88
2022/02/18 06:40:42;;;;;;;;;;;;;;;11.45;76.78;100016.34;5118075;28;19969;-89
2022/02/18 06:43:07;;;;;;;;;;;;;;;11.80;75.84;100015.88;5121462;28;19923;-89
2022/02/18 06:45:33;;;;;;;;;;;;;;;11.18;77.26;100009.03;5117665;28;19915;-87
2022/02/18 06:47:59;;;;;;;;;;;;;;;11.25;79.08;99998.69;5119245;28;19919;-86
2022/02/18 06:50:24;;;;;;;;;;;;;;;11.53;77.22;99997.75;5115608;28;19916;-85
2022/02/18 06:52:49;;;;;;;;;;;;;;;11.20;79.20;100003.50;5115638;28;19930;-84
2022/02/18 06:55:15;;;;;;;;;;;;;;;11.30;77.75;99997.41;5119247;27;19915;-85
2022/02/18 06:57:42;;;;;;;;;;;;;;;11.35;77.06;99983.56;5119759;27;20552;-92
2022/02/18 07:00:08;;;;;;;;;;;;;;;11.65;77.48;99972.56;5120444;27;19922;-87
2022/02/18 07:02:34;;;;;;;;;;;;;;;11.59;77.87;99967.56;5137801;27;19916;-87
2022/02/18 07:04:59;;;;;;;;;;;;;;;11.34;78.25;99960.19;5118727;27;19926;-85
2022/02/18 07:07:24;;;;;;;;;;;;;;;11.30;79.73;99970.34;5118771;27;19923;-86
2022/02/18 07:09:49;;;;;;;;;;;;;;;11.20;93.53;99949.38;5118750;27;20094;-84
2022/02/18 07:12:14;;;;;;;;;;;;;;;11.28;83.46;99934.38;5136856;27;20002;-83
2022/02/18 07:14:40;;;;;;;;;;;;;;;12.11;79.09;99916.25;5135819;27;19916;-83
2022/02/18 07:17:05;;;;;;;;;;;;;;;11.71;80.01;99914.41;5135123;27;20392;-83
2022/02/18 07:19:30;;;;;;;;;;;;;;;11.92;78.85;99908.50;5135250;27;19930;-84
2022/02/18 07:21:56;;;;;;;;;;;;;;;13.18;76.34;99877.88;5135707;27;19973;-83
2022/02/18 07:24:21;;;;;;;;;;;;;;;13.12;74.88;99881.91;5135978;27;19998;-83
2022/02/18 07:26:47;;;;;;;;;;;;;;;13.19;75.64;99870.59;5135895;27;20432;-84
2022/02/18 07:29:12;;;;;;;;;;;;;;;12.99;74.83;99872.94;5117256;27;19919;-84
2022/02/18 07:31:37;;;;;;;;;;;;;;;12.95;75.15;99868.69;5135757;27;20254;-84
2022/02/18 07:34:03;;;;;;;;;;;;;;;14.61;70.80;99854.28;5135706;27;19963;-84
2022/02/18 07:36:28;;;;;;;;;;;;;;;14.32;70.40;99849.28;5135790;27;19947;-83
2022/02/18 07:38:53;;;;;;;;;;;;;;;14.71;67.51;99845.25;5117489;27;19921;-83
2022/02/18 07:41:18;;;;;;;;;;;;;;;14.12;69.82;99846.28;5136856;27;20434;-83
2022/02/18 07:43:44;;;;;;;;;;;;;;;13.79;72.54;99830.75;5136655;27;20418;-83
2022/02/18 07:46:09;;;;;;;;;;;;;;;13.79;75.13;99837.06;5118210;27;19919;-83
2022/02/18 07:48:34;;;;;;;;;;;;;;;14.07;71.22;99824.03;5135231;27;20353;-83
2022/02/18 07:51:00;;;;;;;;;;;;;;;-147.53;100.00;59759.91;5136021;27;19972;-83
2022/02/18 07:53:25;;;;;;;;;;;;;;;-147.53;100.00;59759.91;5116820;27;19930;-82
2022/02/18 07:55:50;;;;;;;;;;;;;;;-147.53;100.00;59759.91;5116584;27;19923;-83
2022/02/18 07:58:15;;;;;;;;;;;;;;;-147.53;100.00;59759.91;5116839;27;20254;-83
2022/02/18 08:00:42;;;;;;;;;;;;;;;-147.53;100.00;59759.91;5116577;27;20061;-84
2022/02/18 08:03:07;;;;;;;;;;;;;;;-147.53;100.00;59759.91;5117320;27;20060;-85
2022/02/18 08:05:32;;;;;;;;;;;;;;;-147.53;100.00;59759.91;5117070;27;19963;-83
2022/02/18 08:07:58;;;;;;;;;;;;;;;-147.53;100.00;59759.91;5116934;27;19922;-84
2022/02/18 08:10:25;;;;;;;;;;;;;;;-147.53;100.00;59759.91;5117210;27;19916;-85
2022/02/18 08:12:51;;;;;;;;;;;;;;;-147.53;100.00;59759.91;5119166;27;19991;-85
2022/02/18 08:15:16;;;;;;;;;;;;;;;-147.53;100.00;59759.91;5119864;27;20014;-83
2022/02/18 08:17:41;;;;;;;;;;;;;;;15.79;67.54;99740.00;5134711;27;20019;-84
2022/02/18 08:20:08;;;;;;;;;;;;;;;15.13;69.28;99732.91;5115929;27;19962;-83
2022/02/18 08:22:33;;;;;;;;;;;;;;;15.83;68.18;99716.94;5115602;27;20467;-83
2022/02/18 08:25:00;;;;;;;;;;;;;;;14.88;69.59;99709.59;5116094;27;20018;-83
2022/02/18 08:27:25;;;;;;;;;;;;;;;15.22;69.96;99720.38;5143474;27;19919;-84
2022/02/18 08:29:50;;;;;;;;;;;;;;;15.77;68.67;99712.00;5120758;27;19972;-84
2022/02/18 08:32:15;;;;;;;;;;;;;;;15.54;68.77;99697.66;5118064;27;19930;-86
2022/02/18 08:34:41;;;;;;;;;;;;;;;14.87;69.75;99710.56;5145679;27;19916;-87
2022/02/18 08:37:06;;;;;;;;;;;;;;;15.27;70.42;99709.06;5122473;27;20380;-85
2022/02/18 08:39:31;;;;;;;;;;;;;;;15.29;70.25;99698.91;5122488;27;20365;-85
2022/02/18 08:41:56;;;;;;;;;;;;;;;14.87;70.57;99670.63;5124117;27;19974;-85
2022/02/18 08:44:22;;;;;;;;;;;;;;;14.69;71.62;99694.81;5142064;27;20289;-85
2022/02/18 08:46:50;;;;;;;;;;;;;;;15.71;68.75;99669.75;5123941;27;19921;-85
2022/02/18 08:49:16;;;;;;;;;;;;;;;15.55;68.57;99662.09;5126976;27;20428;-85
2022/02/18 08:51:42;;;;;;;;;;;;;;;15.39;69.17;99656.25;5124233;27;19920;-86
2022/02/18 08:54:08;;;;;;;;;;;;;;;15.84;68.04;99655.09;5127996;27;19923;-85
2022/02/18 08:56:34;;;;;;;;;;;;;;;15.21;69.46;99640.47;5122541;27;19916;-87
2022/02/18 08:58:59;;;;;;;;;;;;;;;15.71;68.29;99641.63;5117365;27;20003;-85
2022/02/18 09:01:26;;;;;;;;;;;;;;;15.29;69.29;99631.63;5115460;27;20688;-86
2022/02/18 09:03:51;;;;;;;;;;;;;;;15.77;68.74;99616.56;5112124;28;19961;-83
2022/02/18 09:06:16;;;;;;;;;;;;;;;15.30;69.33;99614.28;5115159;27;19920;-85
2022/02/18 09:08:41;;;;;;;;;;;;;;;16.19;67.36;99605.53;5125882;27;19923;-84
2022/02/18 09:11:07;;;;;;;;;;;;;;;15.39;69.24;99609.91;5128480;27;20257;-83
2022/02/18 09:13:32;;;;;;;;;;;;;;;15.54;69.11;99608.56;5113398;28;19996;-84
2022/02/18 09:15:57;;;;;;;;;;;;;;;16.01;67.41;99593.56;5121052;27;20031;-85
2022/02/18 09:18:23;;;;;;;;;;;;;;;15.68;68.15;99582.78;5133797;27;20048;-85
2022/02/18 09:20:48;;;;;;;;;;;;;;;16.05;68.00;99567.75;5123881;27;19996;-83
2022/02/18 09:23:15;;;;;;;;;;;;;;;16.32;67.24;99558.00;5126161;28;19920;-84
2022/02/18 09:25:40;;;;;;;;;;;;;;;-147.53;100.00;59759.91;5114067;28;19916;-83
2022/02/18 09:28:06;;;;;;;;;;;;;;;-147.53;100.00;59759.91;5113252;28;19916;-83
2022/02/18 09:30:33;;;;;;;;;;;;;;;-147.53;100.00;59759.91;5126841;28;20364;-83
2022/02/18 09:32:59;;;;;;;;;;;;;;;-147.53;100.00;59759.91;5121683;28;19915;-84
2022/02/18 09:35:25;;;;;;;;;;;;;;;-147.53;100.00;59759.91;5121900;28;20327;-85
2022/02/18 09:37:51;;;;;;;;;;;;;;;-147.53;100.00;59759.91;5127384;28;19950;-82
2022/02/18 09:40:16;;;;;;;;;;;;;;;-147.53;100.00;59759.91;5126006;28;19926;-85
2022/02/18 09:42:42;;;;;;;;;;;;;;;-147.53;100.00;59759.91;5121106;28;19922;-83
2022/02/18 09:45:07;;;;;;;;;;;;;;;-147.53;100.00;59759.91;5119244;27;19916;-84
2022/02/18 09:47:33;;;;;;;;;;;;;;;-147.53;100.00;59759.91;5112160;28;19923;-83
2022/02/18 09:50:00;;;;;;;;;;;;;;;-147.53;100.00;59759.91;5121683;28;20297;-82
2022/02/18 09:52:25;;;;;;;;;;;;;;;-147.53;100.00;59759.91;5124032;28;19923;-84
2022/02/18 09:54:50;;;;;;;;;;;;;;;-147.53;100.00;59759.91;5121248;28;19920;-83
2022/02/18 09:57:17;;;;;;;;;;;;;;;-147.53;100.00;59759.91;5120502;28;19969;-81
2022/02/18 09:59:43;;;;;;;;;;;;;;;-147.53;100.00;59759.91;5121480;28;19926;-82
2022/02/18 10:02:10;;;;;;;;;;;;;;;-147.53;100.00;59759.91;5122379;28;20009;-83
2022/02/18 10:04:36;;;;;;;;;;;;;;;-147.53;100.00;59759.91;5119844;28;20030;-81
2022/02/18 10:07:02;;;;;;;;;;;;;;;-147.53;100.00;59759.91;5124469;28;19974;-83
2022/02/18 10:09:38;;;;;;;;;;;;;;;-147.53;100.00;59759.91;5122380;28;20268;-83
2022/02/18 10:12:03;;;;;;;;;;;;;;;-147.53;100.00;59759.91;5119090;28;19958;-80
2022/02/18 10:14:47;;;;;;;;;;;;;;;-147.53;100.00;59759.91;5126555;28;19924;-83
2022/02/18 10:17:12;;;;;;;;;;;;;;;-147.53;100.00;59759.91;5134737;28;19919;-83
2022/02/18 10:19:48;;;;;;;;;;;;;;;-147.53;100.00;59759.91;5133752;28;19915;-82
2022/02/18 10:22:13;;;;;;;;;;;;;;;-147.53;100.00;59759.91;5134035;28;19933;-86
2022/02/18 10:24:40;;;;;;;;;;;;;;;-147.53;100.00;59759.91;5133595;27;20365;-86
2022/02/18 10:27:05;;;;;;;;;;;;;;;-147.53;100.00;59759.91;5136848;27;19916;-86
2022/02/18 10:29:33;;;;;;;;;;;;;;;-147.53;100.00;59759.91;5136638;27;19915;-84
2022/02/18 10:32:08;;;;;;;;;;;;;;;-147.53;100.00;59759.91;5136737;27;19919;-82
2022/02/18 10:34:55;;;;;;;;;;;;;;;-147.53;100.00;59759.91;5137650;27;20392;-83
2022/02/18 10:37:22;;;;;;;;;;;;;;;-147.53;100.00;59759.91;5136102;27;19919;-82
2022/02/18 10:39:47;;;;;;;;;;;;;;;-147.53;100.00;59759.91;5136038;27;19919;-83
2022/02/18 10:42:14;;;;;;;;;;;;;;;-147.53;100.00;59759.91;5136927;27;20026;-86
2022/02/18 10:44:40;;;;;;;;;;;;;;;-147.53;100.00;59759.91;5136462;27;20286;-83
2022/02/18 10:47:05;;;;;;;;;;;;;;;-147.53;100.00;59759.91;5136887;27;19931;-84
2022/02/18 10:49:33;;;;;;;;;;;;;;;-147.53;100.00;59759.91;5136231;27;19958;-84
2022/02/18 10:52:10;;;;;;;;;;;;;;;-147.53;100.00;59759.91;5135961;27;20365;-84
2022/02/18 10:54:35;;;;;;;;;;;;;;;-147.53;100.00;59759.91;5152158;27;20445;-84
2022/02/18 10:57:13;;;;;;;;;;;;;;;-147.53;100.00;59759.91;5157813;27;19950;-84
2022/02/18 10:59:38;;;;;;;;;;;;;;;-147.53;100.00;59759.91;5139900;27;20396;-85
2022/02/18 11:02:03;;;;;;;;;;;;;;;-147.53;100.00;59759.91;5139026;27;19975;-84
2022/02/18 11:04:28;;;;;;;;;;;;;;;-147.53;100.00;59759.91;5140914;27;19930;-84
2022/02/18 11:07:06;;;;;;;;;;;;;;;-147.53;100.00;59759.91;5142160;27;19979;-83
2022/02/18 11:09:32;;;;;;;;;;;;;;;-147.53;100.00;59759.91;5140079;27;20345;-85
2022/02/18 11:11:58;;;;;;;;;;;;;;;-147.53;100.00;59759.91;5139474;27;19915;-85
2022/02/18 11:14:25;;;;;;;;;;;;;;;-147.53;100.00;59759.91;5141794;27;19919;-88
2022/02/18 11:16:55;;;;;;;;;;;;;;;-147.53;100.00;59759.91;5160200;27;19937;-85
2022/02/18 11:19:20;;;;;;;;;;;;;;;-147.53;100.00;59759.91;5141687;27;20269;-85
2022/02/18 11:21:46;;;;;;;;;;;;;;;-147.53;100.00;59759.91;5160277;27;19915;-85
2022/02/18 11:24:14;;;;;;;;;;;;;;;-147.53;100.00;59759.91;5159737;27;19915;-86
2022/02/18 11:26:41;;;;;;;;;;;;;;;-147.53;100.00;59759.91;5159569;27;19923;-88
2022/02/18 11:29:08;;;;;;;;;;;;;;;-147.53;100.00;59759.91;5140748;27;19988;-83
2022/02/18 11:31:52;;;;;;;;;;;;;;;-147.53;100.00;59759.91;5143831;27;20289;-84
2022/02/18 11:34:18;;;;;;;;;;;;;;;-147.53;100.00;59759.91;5158363;27;19920;-84
2022/02/18 11:36:43;;;;;;;;;;;;;;;-147.53;100.00;59759.91;5146699;27;19915;-84
2022/02/18 11:39:11;;;;;;;;;;;;;;;-147.53;100.00;59759.91;5158273;27;19915;-84
2022/02/18 11:41:42;;;;;;;;;;;;;;;-147.53;100.00;59759.91;5140003;27;19919;-86
2022/02/18 11:44:08;;;;;;;;;;;;;;;-147.53;100.00;59759.91;5139406;27;19915;-87
2022/02/18 11:46:33;;;;;;;;;;;;;;;-147.53;100.00;59759.91;5158123;27;20383;-86
2022/02/18 11:49:01;;;;;;;;;;;;;;;-147.53;100.00;59759.91;5122646;27;19923;-86
2022/02/18 11:51:38;;;;;;;;;;;;;;;-147.53;100.00;59759.91;5146225;27;19911;-83
2022/02/18 11:54:04;;;;;;;;;;;;;;;-147.53;100.00;59759.91;5146915;27;19975;-82
2022/02/18 11:56:35;;;;;;;;;;;;;;;-147.53;100.00;59759.91;5145657;27;19919;-84
2022/02/18 11:59:02;;;;;;;;;;;;;;;-147.53;100.00;59759.91;5140181;27;19915;-86
2022/02/18 12:01:46;;;;;;;;;;;;;;;-147.53;100.00;59759.91;5157983;27;19966;-84
2022/02/18 12:04:15;;;;;;;;;;;;;;;-147.53;100.00;59759.91;5158111;27;19962;-86
2022/02/18 12:06:41;;;;;;;;;;;;;;;-147.53;100.00;59759.91;5138569;27;19963;-85
2022/02/18 12:09:06;;;;;;;;;;;;;;;-147.53;100.00;59759.91;5138666;27;20296;-87
2022/02/18 12:11:41;;;;;;;;;;;;;;;-147.53;100.00;59759.91;5156899;27;20256;-85
2022/02/18 12:14:11;;;;;;;;;;;;;;;-147.53;100.00;59759.91;5138220;27;19945;-84
2022/02/18 12:16:37;;;;;;;;;;;;;;;-147.53;100.00;59759.91;5157305;27;19915;-86
2022/02/18 12:19:02;;;;;;;;;;;;;;;-147.53;100.00;59759.91;5157363;27;19924;-88
2022/02/18 12:21:27;;;;;;;;;;;;;;;-147.53;100.00;59759.91;5138386;27;20257;-85
2022/02/18 12:23:52;;;;;;;;;;;;;;;-147.53;100.00;59759.91;5138585;27;19911;-85
2022/02/18 12:26:19;;;;;;;;;;;;;;;-147.53;100.00;59759.91;5156313;27;19914;-84